createdAt,value
2018-09-17T00:00:58.083Z,46.91
2018-09-17T00:03:29.912Z,46.46
2018-09-17T00:06:00.561Z,46.95
2018-09-17T00:08:32.015Z,47.03
2018-09-17T00:11:03.637Z,46.79
2018-09-17T00:13:34.980Z,46.40
2018-09-17T00:16:06.556Z,46.70
2018-09-17T00:18:37.863Z,47.04
2018-09-17T00:21:09.433Z,46.63
2018-09-17T00:23:40.780Z,46.95
2018-09-17T00:26:12.388Z,46.71
2018-09-17T00:28:43.752Z,46.59
2018-09-17T00:31:15.314Z,46.92
2018-09-17T00:33:46.763Z,46.65
2018-09-17T00:36:18.208Z,47.12
2018-09-17T00:38:49.732Z,46.60
2018-09-17T00:41:21.290Z,46.78
2018-09-17T00:43:52.788Z,47.29
2018-09-17T00:46:24.285Z,46.47
2018-09-17T00:48:55.842Z,46.64
2018-09-17T00:51:27.310Z,46.69
2018-09-17T00:53:58.770Z,46.33
2018-09-17T00:56:30.303Z,46.26
2018-09-17T00:59:01.809Z,47.06
2018-09-17T01:01:33.419Z,46.92
2018-09-17T01:04:05.004Z,47.19
2018-09-17T01:06:36.673Z,46.64
2018-09-17T01:09:12.710Z,46.30
2018-09-17T01:11:44.268Z,46.81
2018-09-17T01:14:15.774Z,46.86
2018-09-17T01:16:47.376Z,46.87
2018-09-17T01:19:18.761Z,47.09
2018-09-17T01:21:50.204Z,46.95
2018-09-17T01:24:21.685Z,47.41
2018-09-17T01:26:53.196Z,47.35
2018-09-17T01:29:24.717Z,47.27
2018-09-17T01:31:55.765Z,46.84
2018-09-17T01:34:26.806Z,46.81
2018-09-17T01:36:58.330Z,47.11
2018-09-17T01:39:29.879Z,47.01
2018-09-17T01:42:00.609Z,47.21
2018-09-17T01:44:32.232Z,47.08
2018-09-17T01:47:03.815Z,47.14
2018-09-17T01:49:35.469Z,47.25
2018-09-17T01:52:06.880Z,46.92
2018-09-17T01:54:37.584Z,46.78
2018-09-17T01:57:09.221Z,46.98
2018-09-17T01:59:40.704Z,46.62
2018-09-17T02:04:33.671Z,46.91
2018-09-17T02:07:04.769Z,47.16
2018-09-17T02:09:40.235Z,46.50
2018-09-17T02:12:13.557Z,46.81
2018-09-17T02:14:45.222Z,46.42
2018-09-17T02:17:16.733Z,47.08
2018-09-17T02:19:48.434Z,46.24
2018-09-17T02:22:19.844Z,47.13
2018-09-17T02:24:51.441Z,46.86
2018-09-17T02:27:22.966Z,46.73
2018-09-17T02:29:54.552Z,46.75
2018-09-17T02:32:25.979Z,47.17
2018-09-17T02:34:57.669Z,46.89
2018-09-17T02:37:29.236Z,47.13
2018-09-17T02:40:00.811Z,46.84
2018-09-17T02:42:32.441Z,47.09
2018-09-17T02:45:03.857Z,46.73
2018-09-17T02:47:35.204Z,47.79
2018-09-17T02:50:07.673Z,46.74
2018-09-17T02:52:39.148Z,47.42
2018-09-17T02:55:10.812Z,47.44
2018-09-17T02:57:42.670Z,47.39
2018-09-17T03:00:14.202Z,46.88
2018-09-17T03:02:45.793Z,47.29
2018-09-17T03:05:17.499Z,46.97
2018-09-17T03:07:49.069Z,46.66
2018-09-17T03:10:20.736Z,47.50
2018-09-17T03:12:52.219Z,46.73
2018-09-17T03:15:46.820Z,46.91
2018-09-17T03:21:01.900Z,46.70
2018-09-17T03:23:32.579Z,47.20
2018-09-17T03:26:04.213Z,47.15
2018-09-17T03:28:35.434Z,47.84
2018-09-17T03:31:06.671Z,47.14
2018-09-17T03:33:38.482Z,47.12
2018-09-17T03:36:10.009Z,47.03
2018-09-17T03:38:46.743Z,47.33
2018-09-17T03:41:18.796Z,47.31
2018-09-17T03:43:52.014Z,47.65
2018-09-17T03:46:22.720Z,46.67
2018-09-17T03:48:53.685Z,47.22
2018-09-17T03:51:25.323Z,47.21
2018-09-17T03:53:56.795Z,47.34
2018-09-17T03:56:28.344Z,47.46
2018-09-17T03:58:59.795Z,47.35
2018-09-17T04:01:31.374Z,47.24
2018-09-17T04:04:02.785Z,47.36
2018-09-17T04:06:34.371Z,46.40
2018-09-17T04:09:07.247Z,46.71
2018-09-17T04:11:39.211Z,46.57
2018-09-17T04:14:10.775Z,46.38
2018-09-17T04:16:42.276Z,45.20
2018-09-17T04:21:58.305Z,45.01
2018-09-17T04:24:29.608Z,47.00
2018-09-17T04:27:01.237Z,46.84
2018-09-17T04:29:32.749Z,46.63
2018-09-17T04:32:04.399Z,45.93
2018-09-17T04:34:35.861Z,46.10
2018-09-17T04:37:07.532Z,47.00
2018-09-17T04:39:39.221Z,46.17
2018-09-17T04:42:10.734Z,46.85
2018-09-17T04:44:42.203Z,46.76
2018-09-17T04:47:13.876Z,46.51
2018-09-17T04:49:44.760Z,45.40
2018-09-17T04:52:16.422Z,46.47
2018-09-17T04:54:48.222Z,46.35
2018-09-17T04:57:19.749Z,45.21
2018-09-17T04:59:51.303Z,45.72
2018-09-17T05:02:22.809Z,45.98
2018-09-17T05:04:54.661Z,46.98
2018-09-17T05:07:26.263Z,46.76
2018-09-17T05:09:57.704Z,45.68
2018-09-17T05:12:29.214Z,46.63
2018-09-17T05:15:00.777Z,46.68
2018-09-17T05:17:32.297Z,46.36
2018-09-17T05:20:03.791Z,46.70
2018-09-17T05:22:35.304Z,46.11
2018-09-17T05:25:07.223Z,46.44
2018-09-17T05:27:39.020Z,46.12
2018-09-17T05:30:10.658Z,46.74
2018-09-17T05:32:42.220Z,45.71
2018-09-17T05:35:13.831Z,45.75
2018-09-17T05:37:45.226Z,47.01
2018-09-17T05:40:16.691Z,46.94
2018-09-17T05:42:48.307Z,46.46
2018-09-17T05:45:19.845Z,46.52
2018-09-17T05:47:51.301Z,45.86
2018-09-17T05:50:22.782Z,47.59
2018-09-17T05:52:54.422Z,45.80
2018-09-17T05:55:26.225Z,46.10
2018-09-17T05:57:58.024Z,46.76
2018-09-17T06:00:29.956Z,46.31
2018-09-17T06:03:00.777Z,46.35
2018-09-17T06:05:32.238Z,46.82
2018-09-17T06:08:04.277Z,46.08
2018-09-17T06:10:35.903Z,46.37
2018-09-17T06:13:07.706Z,46.80
2018-09-17T06:15:39.030Z,46.87
2018-09-17T06:18:10.635Z,46.70
2018-09-17T06:20:42.540Z,46.03
2018-09-17T06:23:14.041Z,46.66
2018-09-17T06:25:45.747Z,46.40
2018-09-17T06:28:17.372Z,46.82
2018-09-17T06:30:49.225Z,46.47
2018-09-17T06:33:21.421Z,47.12
2018-09-17T06:35:53.400Z,46.10
2018-09-17T06:38:25.206Z,46.59
2018-09-17T06:40:56.911Z,46.33
2018-09-17T06:43:27.550Z,46.90
2018-09-17T06:45:58.983Z,46.27
2018-09-17T06:48:30.552Z,46.39
2018-09-17T06:51:01.979Z,46.62
2018-09-17T06:53:33.703Z,46.90
2018-09-17T06:58:36.009Z,46.23
2018-09-17T07:04:00.785Z,46.33
2018-09-17T07:06:32.433Z,46.67
2018-09-17T07:09:14.609Z,46.43
2018-09-17T07:11:46.696Z,46.57
2018-09-17T07:14:18.405Z,46.10
2018-09-17T07:16:49.849Z,46.35
2018-09-17T07:22:08.493Z,46.32
2018-09-17T07:24:39.679Z,46.54
2018-09-17T07:27:11.218Z,46.57
2018-09-17T07:29:42.805Z,46.03
2018-09-17T07:32:14.313Z,46.26
2018-09-17T07:34:45.980Z,45.75
2018-09-17T07:37:17.599Z,46.20
2018-09-17T07:39:49.216Z,46.21
2018-09-17T07:42:21.037Z,46.07
2018-09-17T07:44:52.698Z,46.16
2018-09-17T07:47:23.981Z,46.18
2018-09-17T07:49:55.706Z,46.59
2018-09-17T07:52:27.396Z,46.11
2018-09-17T07:54:58.739Z,46.50
2018-09-17T07:57:30.369Z,46.21
2018-09-17T08:00:01.778Z,46.02
2018-09-17T08:02:33.363Z,46.27
2018-09-17T08:05:04.787Z,45.98
2018-09-17T08:07:36.454Z,46.12
2018-09-17T08:10:07.792Z,46.02
2018-09-17T08:12:39.388Z,45.83
2018-09-17T08:15:10.743Z,46.05
2018-09-17T08:17:42.309Z,46.33
2018-09-17T08:20:14.213Z,46.28
2018-09-17T08:22:45.679Z,46.50
2018-09-17T08:25:17.205Z,46.05
2018-09-17T08:27:48.756Z,46.31
2018-09-17T08:30:20.388Z,45.95
2018-09-17T08:32:51.751Z,45.69
2018-09-17T08:35:23.319Z,45.72
2018-09-17T08:37:54.808Z,46.47
2018-09-17T08:40:26.278Z,46.12
2018-09-17T08:42:57.569Z,46.08
2018-09-17T08:45:29.333Z,45.65
2018-09-17T08:48:00.784Z,45.79
2018-09-17T08:50:32.929Z,45.80
2018-09-17T08:53:03.589Z,45.95
2018-09-17T08:55:40.581Z,45.91
2018-09-17T08:58:17.075Z,45.97
2018-09-17T09:00:53.892Z,45.52
2018-09-17T09:03:27.672Z,45.62
2018-09-17T09:06:03.971Z,45.77
2018-09-17T09:08:35.504Z,45.58
2018-09-17T09:11:12.209Z,45.78
2018-09-17T09:14:50.765Z,45.27
2018-09-17T09:17:22.375Z,45.65
2018-09-17T09:19:53.822Z,45.54
2018-09-17T09:22:25.390Z,45.74
2018-09-17T09:24:56.736Z,45.70
2018-09-17T09:27:28.392Z,45.35
2018-09-17T09:29:59.886Z,45.43
2018-09-17T09:32:30.598Z,45.48
2018-09-17T09:35:01.974Z,45.33
2018-09-17T09:37:33.623Z,45.27
2018-09-17T09:40:05.216Z,44.96
2018-09-17T09:42:36.773Z,45.43
2018-09-17T09:45:08.214Z,45.07
2018-09-17T09:47:39.716Z,45.23
2018-09-17T09:50:11.237Z,45.00
2018-09-17T09:52:43.240Z,44.85
2018-09-17T09:55:14.692Z,45.23
2018-09-17T09:57:46.320Z,44.93
2018-09-17T10:00:22.685Z,45.14
2018-09-17T10:02:58.977Z,45.19
2018-09-17T10:05:30.828Z,45.32
2018-09-17T10:08:02.312Z,44.89
2018-09-17T10:10:38.651Z,45.23
2018-09-17T10:13:15.209Z,44.69
2018-09-17T10:15:55.925Z,44.63
2018-09-17T10:18:31.523Z,44.67
2018-09-17T10:21:03.010Z,44.75
2018-09-17T10:23:34.525Z,44.84
2018-09-17T10:26:05.912Z,44.85
2018-09-17T10:28:37.346Z,44.80
2018-09-17T10:31:09.341Z,44.81
2018-09-17T10:33:40.784Z,44.70
2018-09-17T10:36:12.213Z,45.04
2018-09-17T10:38:43.755Z,45.50
2018-09-17T10:41:14.875Z,45.10
2018-09-17T10:43:46.391Z,44.88
2018-09-17T10:46:17.759Z,44.93
2018-09-17T10:48:49.220Z,45.17
2018-09-17T10:51:20.747Z,44.87
2018-09-17T10:53:51.891Z,45.11
2018-09-17T10:56:22.501Z,44.80
2018-09-17T10:58:53.896Z,44.89
2018-09-17T11:01:24.589Z,44.90
2018-09-17T11:03:56.224Z,44.72
2018-09-17T11:06:27.682Z,45.04
2018-09-17T11:08:59.186Z,44.35
2018-09-17T11:11:30.693Z,43.53
2018-09-17T11:14:02.226Z,45.41
2018-09-17T11:16:34.456Z,43.99
2018-09-17T11:19:05.765Z,42.65
2018-09-17T11:21:37.292Z,43.68
2018-09-17T11:24:08.762Z,43.45
2018-09-17T11:26:40.312Z,45.45
2018-09-17T11:29:11.738Z,45.36
2018-09-17T11:31:43.203Z,45.82
2018-09-17T11:34:14.657Z,45.82
2018-09-17T11:36:46.062Z,45.45
2018-09-17T11:39:17.687Z,46.02
2018-09-17T11:41:49.210Z,45.63
2018-09-17T11:44:20.697Z,46.09
2018-09-17T11:46:52.321Z,45.89
2018-09-17T11:49:23.729Z,46.10
2018-09-17T11:51:55.320Z,45.88
2018-09-17T11:54:26.753Z,45.57
2018-09-17T11:56:58.217Z,45.89
2018-09-17T11:59:29.724Z,46.14
2018-09-17T12:02:09.970Z,45.81
2018-09-17T12:04:46.604Z,46.23
2018-09-17T12:07:23.241Z,45.91
2018-09-17T12:09:54.700Z,46.13
2018-09-17T12:12:26.387Z,45.74
2018-09-17T12:14:57.757Z,46.10
2018-09-17T12:17:29.217Z,45.92
2018-09-17T12:20:00.816Z,46.14
2018-09-17T12:22:32.480Z,46.20
2018-09-17T12:25:03.795Z,46.13
2018-09-17T12:27:35.196Z,46.03
2018-09-17T12:30:06.998Z,45.87
2018-09-17T12:32:38.653Z,45.96
2018-09-17T12:35:10.205Z,45.83
2018-09-17T12:37:41.717Z,45.91
2018-09-17T12:40:13.449Z,46.00
2018-09-17T12:42:44.809Z,45.87
2018-09-17T12:45:15.833Z,45.81
2018-09-17T12:47:46.781Z,45.76
2018-09-17T12:50:18.207Z,46.16
2018-09-17T12:52:49.887Z,46.34
2018-09-17T12:55:36.797Z,45.89
2018-09-17T12:58:08.751Z,46.11
2018-09-17T13:00:40.324Z,46.12
2018-09-17T13:03:11.783Z,45.89
2018-09-17T13:05:42.818Z,46.38
2018-09-17T13:08:13.765Z,46.37
2018-09-17T13:10:45.402Z,46.19
2018-09-17T13:13:16.840Z,46.41
2018-09-17T13:15:53.804Z,46.28
2018-09-17T13:18:26.866Z,46.25
2018-09-17T13:20:58.433Z,45.76
2018-09-17T13:23:29.990Z,46.14
2018-09-17T13:26:01.777Z,46.17
2018-09-17T13:28:33.314Z,46.11
2018-09-17T13:31:04.780Z,46.04
2018-09-17T13:33:36.318Z,46.16
2018-09-17T13:36:07.759Z,45.99
2018-09-17T13:38:38.842Z,46.35
2018-09-17T13:41:10.467Z,46.14
2018-09-17T13:43:41.917Z,46.11
2018-09-17T13:46:12.651Z,45.99
2018-09-17T13:48:44.002Z,46.25
2018-09-17T13:51:15.585Z,46.38
2018-09-17T13:53:46.952Z,46.42
2018-09-17T13:56:18.556Z,46.14
2018-09-17T13:58:50.243Z,46.29
2018-09-17T14:01:21.718Z,46.33
2018-09-17T14:03:53.255Z,46.18
2018-09-17T14:06:24.828Z,45.99
2018-09-17T14:08:56.427Z,46.48
2018-09-17T14:11:27.830Z,46.03
2018-09-17T14:13:59.566Z,46.04
2018-09-17T14:16:36.010Z,46.37
2018-09-17T14:19:07.502Z,46.04
2018-09-17T14:21:38.963Z,45.99
2018-09-17T14:24:10.616Z,46.32
2018-09-17T14:26:42.745Z,46.46
2018-09-17T14:29:13.838Z,46.03
2018-09-17T14:31:50.242Z,45.89
2018-09-17T14:34:21.788Z,46.46
2018-09-17T14:36:54.228Z,46.16
2018-09-17T14:39:25.736Z,46.17
2018-09-17T14:41:57.699Z,46.08
2018-09-17T14:44:29.033Z,46.29
2018-09-17T14:47:00.635Z,45.93
2018-09-17T14:49:32.434Z,45.86
2018-09-17T14:52:03.819Z,46.38
2018-09-17T14:54:35.235Z,46.11
2018-09-17T14:57:07.245Z,46.28
2018-09-17T14:59:38.803Z,45.94
2018-09-17T15:02:10.338Z,46.15
2018-09-17T15:04:41.819Z,46.27
2018-09-17T15:07:13.348Z,46.35
2018-09-17T15:09:45.324Z,45.93
2018-09-17T15:12:17.201Z,46.07
2018-09-17T15:14:48.840Z,46.24
2018-09-17T15:17:20.443Z,46.44
2018-09-17T15:19:51.838Z,46.53
2018-09-17T15:22:23.484Z,46.11
2018-09-17T15:24:54.887Z,46.52
2018-09-17T15:27:25.595Z,46.21
2018-09-17T15:29:57.243Z,46.61
2018-09-17T15:32:29.317Z,46.38
2018-09-17T15:35:00.805Z,46.61
2018-09-17T15:37:32.333Z,46.43
2018-09-17T15:40:03.805Z,46.45
2018-09-17T15:42:35.351Z,46.93
2018-09-17T15:45:06.784Z,46.76
2018-09-17T15:47:38.235Z,46.81
2018-09-17T15:50:09.798Z,47.04
2018-09-17T15:52:41.604Z,46.90
2018-09-17T15:55:12.885Z,47.08
2018-09-17T15:57:43.619Z,47.18
2018-09-17T16:00:14.949Z,47.67
2018-09-17T16:02:45.591Z,47.57
2018-09-17T16:05:16.999Z,47.63
2018-09-17T16:07:48.528Z,47.72
2018-09-17T16:10:19.846Z,48.21
2018-09-17T16:12:51.992Z,47.94
2018-09-17T16:15:23.572Z,48.82
2018-09-17T16:17:55.257Z,48.74
2018-09-17T16:20:26.674Z,48.87
2018-09-17T16:22:58.204Z,48.89
2018-09-17T16:25:29.817Z,48.72
2018-09-17T16:28:01.464Z,49.05
2018-09-17T16:30:32.814Z,49.22
2018-09-17T16:33:04.320Z,49.05
2018-09-17T16:35:36.012Z,49.14
2018-09-17T16:38:07.508Z,49.33
2018-09-17T16:40:38.911Z,49.20
2018-09-17T16:43:09.691Z,49.05
2018-09-17T16:45:41.225Z,48.91
2018-09-17T16:48:12.680Z,48.57
2018-09-17T16:50:44.196Z,48.82
2018-09-17T16:53:15.827Z,48.74
2018-09-17T16:55:47.317Z,48.62
2018-09-17T16:58:18.851Z,48.64
2018-09-17T17:00:50.682Z,48.06
2018-09-17T17:03:22.208Z,48.04
2018-09-17T17:05:53.768Z,48.17
2018-09-17T17:08:24.977Z,48.05
2018-09-17T17:10:56.503Z,47.78
2018-09-17T17:13:27.883Z,47.76
2018-09-17T17:15:58.631Z,48.08
2018-09-17T17:18:30.274Z,47.95
2018-09-17T17:21:01.770Z,48.00
2018-09-17T17:23:33.412Z,47.50
2018-09-17T17:26:04.791Z,47.23
2018-09-17T17:28:36.308Z,47.43
2018-09-17T17:31:07.831Z,47.25
2018-09-17T17:33:39.436Z,47.19
2018-09-17T17:36:10.791Z,47.23
2018-09-17T17:38:43.228Z,47.33
2018-09-17T17:41:14.730Z,47.13
2018-09-17T17:43:46.465Z,46.87
2018-09-17T17:46:18.589Z,46.75
2018-09-17T17:48:50.245Z,47.10
2018-09-17T17:51:21.751Z,46.66
2018-09-17T17:53:52.794Z,47.04
2018-09-17T17:56:24.200Z,46.58
2018-09-17T17:58:55.788Z,46.62
2018-09-17T18:01:27.380Z,46.47
2018-09-17T18:03:58.830Z,46.71
2018-09-17T18:06:30.451Z,46.52
2018-09-17T18:09:02.215Z,46.84
2018-09-17T18:11:33.727Z,46.30
2018-09-17T18:14:05.206Z,46.52
2018-09-17T18:16:36.725Z,46.56
2018-09-17T18:19:08.210Z,46.64
2018-09-17T18:21:39.790Z,46.37
2018-09-17T18:24:11.535Z,46.26
2018-09-17T18:26:42.879Z,46.67
2018-09-17T18:29:13.506Z,46.16
2018-09-17T18:31:44.975Z,45.77
2018-09-17T18:34:16.516Z,46.25
2018-09-17T18:36:48.543Z,46.07
2018-09-17T18:39:20.292Z,46.34
2018-09-17T18:41:51.729Z,45.59
2018-09-17T18:44:22.823Z,46.25
2018-09-17T18:46:54.398Z,46.08
2018-09-17T18:49:25.896Z,46.05
2018-09-17T18:51:56.669Z,46.00
2018-09-17T18:54:27.984Z,45.32
2018-09-17T18:56:59.595Z,45.86
2018-09-17T18:59:31.209Z,45.43
2018-09-17T19:02:02.784Z,45.82
2018-09-17T19:04:34.503Z,45.46
2018-09-17T19:07:05.899Z,45.91
2018-09-17T19:09:41.491Z,45.42
2018-09-17T19:12:13.387Z,46.08
2018-09-17T19:14:49.646Z,45.86
2018-09-17T19:17:26.201Z,45.82
2018-09-17T19:19:57.932Z,45.87
2018-09-17T19:22:33.642Z,45.94
2018-09-17T19:25:05.236Z,45.51
2018-09-17T19:27:41.733Z,45.90
2018-09-17T19:30:13.262Z,45.37
2018-09-17T19:32:44.830Z,45.67
2018-09-17T19:35:16.433Z,45.29
2018-09-17T19:37:52.741Z,45.83
2018-09-17T19:40:24.390Z,45.26
2018-09-17T19:42:55.828Z,45.04
2018-09-17T19:45:32.427Z,45.14
2018-09-17T19:48:03.792Z,45.77
2018-09-17T19:50:40.199Z,45.63
2018-09-17T19:53:11.701Z,45.21
2018-09-17T19:55:43.202Z,45.55
2018-09-17T19:58:20.207Z,45.97
2018-09-17T20:00:52.007Z,45.63
2018-09-17T20:03:23.661Z,45.93
2018-09-17T20:06:00.302Z,45.81
2018-09-17T20:08:31.707Z,45.57
2018-09-17T20:11:03.315Z,45.90
2018-09-17T20:13:34.727Z,46.28
2018-09-17T20:16:06.199Z,46.04
2018-09-17T20:18:37.689Z,46.04
2018-09-17T20:21:09.555Z,45.88
2018-09-17T20:23:41.231Z,46.13
2018-09-17T20:26:12.794Z,45.76
2018-09-17T20:28:44.436Z,45.43
2018-09-17T20:31:15.861Z,46.18
2018-09-17T20:33:46.576Z,46.06
2018-09-17T20:36:17.989Z,45.72
2018-09-17T20:38:49.582Z,46.03
2018-09-17T20:41:20.879Z,45.46
2018-09-17T20:43:52.350Z,45.78
2018-09-17T20:46:23.756Z,46.12
2018-09-17T20:48:55.402Z,46.05
2018-09-17T20:51:26.784Z,46.02
2018-09-17T20:53:58.305Z,46.14
2018-09-17T20:56:29.772Z,46.09
2018-09-17T20:59:01.301Z,46.20
2018-09-17T21:01:32.885Z,46.33
2018-09-17T21:04:04.205Z,46.03
2018-09-17T21:06:35.769Z,45.98
2018-09-17T21:09:11.272Z,46.07
2018-09-17T21:11:42.785Z,46.26
2018-09-17T21:14:14.282Z,45.91
2018-09-17T21:16:45.656Z,45.98
2018-09-17T21:19:17.650Z,46.00
2018-09-17T21:21:49.245Z,46.15
2018-09-17T21:24:20.769Z,46.09
2018-09-17T21:26:52.227Z,46.27
2018-09-17T21:29:23.730Z,46.09
2018-09-17T21:31:55.102Z,46.51
2018-09-17T21:34:26.319Z,46.56
2018-09-17T21:36:58.657Z,46.35
2018-09-17T21:39:29.884Z,46.00
2018-09-17T21:42:00.546Z,45.88
2018-09-17T21:44:31.870Z,46.18
2018-09-17T21:47:02.509Z,45.79
2018-09-17T21:49:33.916Z,46.22
2018-09-17T21:52:04.576Z,46.34
2018-09-17T21:54:36.213Z,46.31
2018-09-17T21:57:07.746Z,45.91
2018-09-17T21:59:39.288Z,46.34
2018-09-17T22:02:10.657Z,46.35
2018-09-17T22:04:42.451Z,45.73
2018-09-17T22:07:14.399Z,46.06
2018-09-17T22:09:46.655Z,45.80
2018-09-17T22:12:18.192Z,46.67
2018-09-17T22:14:49.644Z,46.07
2018-09-17T22:17:21.323Z,46.34
2018-09-17T22:19:52.893Z,46.11
2018-09-17T22:22:23.567Z,46.04
2018-09-17T22:24:55.216Z,46.32
2018-09-17T22:27:26.756Z,45.98
2018-09-17T22:29:58.404Z,46.31
2018-09-17T22:32:29.836Z,46.21
2018-09-17T22:35:01.215Z,46.55
2018-09-17T22:37:32.793Z,46.12
2018-09-17T22:40:04.379Z,46.67
2018-09-17T22:42:36.404Z,46.35
2018-09-17T22:45:07.772Z,46.29
2018-09-17T22:47:39.317Z,46.20
2018-09-17T22:50:10.756Z,46.62
2018-09-17T22:52:41.776Z,46.17
2018-09-17T22:55:12.790Z,46.34
2018-09-17T22:57:44.203Z,46.48
2018-09-17T23:00:15.716Z,46.20
2018-09-17T23:02:47.249Z,46.51
2018-09-17T23:05:18.685Z,46.97
2018-09-17T23:07:50.208Z,46.52
2018-09-17T23:10:21.717Z,46.13
2018-09-17T23:12:53.214Z,46.73
2018-09-17T23:15:24.706Z,46.30
2018-09-17T23:17:56.316Z,46.52
2018-09-17T23:20:27.747Z,46.67
2018-09-17T23:22:59.313Z,46.51
2018-09-17T23:25:30.735Z,46.76
2018-09-17T23:28:02.493Z,46.57
2018-09-17T23:30:33.843Z,46.81
2018-09-17T23:33:05.321Z,46.50
2018-09-17T23:35:36.742Z,47.10
2018-09-17T23:38:08.218Z,46.61
2018-09-17T23:40:39.744Z,46.63
2018-09-17T23:43:11.214Z,46.70
2018-09-17T23:45:42.760Z,46.53
2018-09-17T23:48:14.207Z,47.04
2018-09-17T23:50:45.736Z,46.63
2018-09-17T23:53:17.333Z,46.54
2018-09-17T23:55:48.769Z,46.57
2018-09-17T23:58:20.005Z,46.87
